sensor_id;sensor_type;location;lat;lon;timestamp;P1;durP1;ratioP1;P2;durP2;ratioP2
37321;SDS011;23697;48.684;9.032;2023-07-09T00:16:07;1999.90;;;999.90;;
37321;SDS011;23697;48.684;9.032;2023-07-09T00:33:37;1999.90;;;999.90;;
37321;SDS011;23697;48.684;9.032;2023-07-09T00:53:47;1999.90;;;999.90;;
37321;SDS011;23697;48.684;9.032;2023-07-09T00:57:10;1999.90;;;999.90;;
37321;SDS011;23697;48.684;9.032;2023-07-09T01:06:51;1999.90;;;999.90;;
37321;SDS011;23697;48.684;9.032;2023-07-09T01:09:45;1999.90;;;999.90;;
37321;SDS011;23697;48.684;9.032;2023-07-09T01:16:17;1999.90;;;999.90;;
37321;SDS011;23697;48.684;9.032;2023-07-09T01:22:30;1999.90;;;999.90;;
37321;SDS011;23697;48.684;9.032;2023-07-09T01:25:28;1999.90;;;999.90;;
37321;SDS011;23697;48.684;9.032;2023-07-09T01:28:36;1999.90;;;999.90;;
37321;SDS011;23697;48.684;9.032;2023-07-09T01:40:57;1999.90;;;999.90;;
37321;SDS011;23697;48.684;9.032;2023-07-09T01:51:09;1999.90;;;999.90;;
37321;SDS011;23697;48.684;9.032;2023-07-09T01:57:40;1999.90;;;999.90;;
37321;SDS011;23697;48.684;9.032;2023-07-09T02:01:10;1999.90;;;999.90;;
37321;SDS011;23697;48.684;9.032;2023-07-09T02:04:55;1999.90;;;999.90;;
37321;SDS011;23697;48.684;9.032;2023-07-09T02:18:54;1999.90;;;999.90;;
37321;SDS011;23697;48.684;9.032;2023-07-09T02:47:42;1999.90;;;999.90;;
37321;SDS011;23697;48.684;9.032;2023-07-09T02:50:41;1999.90;;;999.90;;
37321;SDS011;23697;48.684;9.032;2023-07-09T02:53:34;1999.90;;;999.90;;
37321;SDS011;23697;48.684;9.032;2023-07-09T03:06:37;1999.90;;;999.90;;
37321;SDS011;23697;48.684;9.032;2023-07-09T03:10:15;1999.90;;;999.90;;
37321;SDS011;23697;48.684;9.032;2023-07-09T03:13:22;1999.90;;;999.90;;
37321;SDS011;23697;48.684;9.032;2023-07-09T03:19:36;1999.90;;;999.90;;
37321;SDS011;23697;48.684;9.032;2023-07-09T03:22:25;1999.90;;;999.90;;
37321;SDS011;23697;48.684;9.032;2023-07-09T03:27:35;1999.90;;;999.90;;
37321;SDS011;23697;48.684;9.032;2023-07-09T03:28:41;1999.90;;;999.90;;
37321;SDS011;23697;48.684;9.032;2023-07-09T03:31:23;1999.90;;;999.90;;
37321;SDS011;23697;48.684;9.032;2023-07-09T03:34:03;1999.90;;;999.90;;
37321;SDS011;23697;48.684;9.032;2023-07-09T03:36:36;1999.90;;;999.90;;
37321;SDS011;23697;48.684;9.032;2023-07-09T03:39:27;1999.90;;;999.90;;
37321;SDS011;23697;48.684;9.032;2023-07-09T03:42:23;1999.90;;;999.90;;
37321;SDS011;23697;48.684;9.032;2023-07-09T03:45:12;1999.90;;;999.90;;
37321;SDS011;23697;48.684;9.032;2023-07-09T03:47:46;1999.90;;;999.90;;
37321;SDS011;23697;48.684;9.032;2023-07-09T03:50:19;1999.90;;;999.90;;
37321;SDS011;23697;48.684;9.032;2023-07-09T03:53:09;1999.90;;;999.90;;
37321;SDS011;23697;48.684;9.032;2023-07-09T03:58:41;1999.90;;;999.90;;
37321;SDS011;23697;48.684;9.032;2023-07-09T04:01:24;1999.90;;;999.90;;
37321;SDS011;23697;48.684;9.032;2023-07-09T04:04:04;1999.90;;;999.90;;
37321;SDS011;23697;48.684;9.032;2023-07-09T04:06:54;1999.90;;;999.90;;
37321;SDS011;23697;48.684;9.032;2023-07-09T04:09:53;1999.90;;;999.90;;
37321;SDS011;23697;48.684;9.032;2023-07-09T04:13:19;1999.90;;;999.90;;
37321;SDS011;23697;48.684;9.032;2023-07-09T04:17:12;1999.90;;;999.90;;
37321;SDS011;23697;48.684;9.032;2023-07-09T04:19:36;1999.90;;;999.90;;
37321;SDS011;23697;48.684;9.032;2023-07-09T04:28:26;1999.90;;;999.90;;
37321;SDS011;23697;48.684;9.032;2023-07-09T04:31:28;1999.90;;;999.90;;
37321;SDS011;23697;48.684;9.032;2023-07-09T04:34:27;1999.90;;;999.90;;
37321;SDS011;23697;48.684;9.032;2023-07-09T04:44:56;1340.70;;;547.53;;
37321;SDS011;23697;48.684;9.032;2023-07-09T06:27:30;1999.90;;;999.90;;
37321;SDS011;23697;48.684;9.032;2023-07-09T06:29:57;1999.90;;;999.90;;
37321;SDS011;23697;48.684;9.032;2023-07-09T06:32:39;1999.90;;;999.90;;
37321;SDS011;23697;48.684;9.032;2023-07-09T06:35:06;1999.90;;;999.90;;
37321;SDS011;23697;48.684;9.032;2023-07-09T06:37:33;1999.90;;;999.90;;
37321;SDS011;23697;48.684;9.032;2023-07-09T06:40:00;1999.90;;;999.90;;
37321;SDS011;23697;48.684;9.032;2023-07-09T06:42:28;1999.90;;;999.90;;
37321;SDS011;23697;48.684;9.032;2023-07-09T06:44:56;1999.90;;;999.90;;
37321;SDS011;23697;48.684;9.032;2023-07-09T06:47:23;1999.90;;;999.90;;
37321;SDS011;23697;48.684;9.032;2023-07-09T06:49:50;1999.90;;;999.90;;
37321;SDS011;23697;48.684;9.032;2023-07-09T06:52:17;1999.90;;;999.90;;
37321;SDS011;23697;48.684;9.032;2023-07-09T06:54:43;1999.90;;;999.90;;
37321;SDS011;23697;48.684;9.032;2023-07-09T06:57:10;1999.90;;;999.90;;
37321;SDS011;23697;48.684;9.032;2023-07-09T06:59:37;1999.90;;;999.90;;
37321;SDS011;23697;48.684;9.032;2023-07-09T07:02:06;1999.90;;;999.90;;
37321;SDS011;23697;48.684;9.032;2023-07-09T07:04:33;1999.90;;;999.90;;
37321;SDS011;23697;48.684;9.032;2023-07-09T07:07:00;1999.90;;;999.90;;
37321;SDS011;23697;48.684;9.032;2023-07-09T07:09:28;1999.90;;;999.90;;
37321;SDS011;23697;48.684;9.032;2023-07-09T07:11:55;1999.90;;;999.90;;
37321;SDS011;23697;48.684;9.032;2023-07-09T07:14:21;1999.90;;;999.90;;
37321;SDS011;23697;48.684;9.032;2023-07-09T07:16:48;1999.90;;;999.90;;
37321;SDS011;23697;48.684;9.032;2023-07-09T07:19:17;1999.90;;;999.90;;
37321;SDS011;23697;48.684;9.032;2023-07-09T07:21:44;1999.90;;;999.90;;
37321;SDS011;23697;48.684;9.032;2023-07-09T07:24:11;1999.90;;;999.90;;
37321;SDS011;23697;48.684;9.032;2023-07-09T07:26:38;1999.90;;;999.90;;
37321;SDS011;23697;48.684;9.032;2023-07-09T07:29:05;1999.90;;;999.90;;
37321;SDS011;23697;48.684;9.032;2023-07-09T07:31:31;1999.90;;;999.90;;
37321;SDS011;23697;48.684;9.032;2023-07-09T07:33:58;1999.90;;;999.90;;
37321;SDS011;23697;48.684;9.032;2023-07-09T07:36:26;1999.90;;;999.90;;
37321;SDS011;23697;48.684;9.032;2023-07-09T07:38:53;1999.90;;;999.90;;
37321;SDS011;23697;48.684;9.032;2023-07-09T07:41:20;1999.90;;;999.90;;
37321;SDS011;23697;48.684;9.032;2023-07-09T07:43:47;1999.90;;;999.90;;
37321;SDS011;23697;48.684;9.032;2023-07-09T07:46:14;1999.90;;;999.90;;
37321;SDS011;23697;48.684;9.032;2023-07-09T07:48:41;1999.90;;;999.90;;
37321;SDS011;23697;48.684;9.032;2023-07-09T07:51:08;1999.90;;;999.90;;
37321;SDS011;23697;48.684;9.032;2023-07-09T07:53:36;1999.90;;;999.90;;
37321;SDS011;23697;48.684;9.032;2023-07-09T07:56:03;1999.90;;;999.90;;
37321;SDS011;23697;48.684;9.032;2023-07-09T07:58:30;1999.90;;;999.90;;
37321;SDS011;23697;48.684;9.032;2023-07-09T08:00:57;1999.90;;;999.90;;
37321;SDS011;23697;48.684;9.032;2023-07-09T08:03:24;1999.90;;;999.90;;
37321;SDS011;23697;48.684;9.032;2023-07-09T08:05:51;1999.90;;;999.90;;
37321;SDS011;23697;48.684;9.032;2023-07-09T08:08:18;1999.90;;;999.90;;
37321;SDS011;23697;48.684;9.032;2023-07-09T08:10:47;1999.90;;;999.90;;
37321;SDS011;23697;48.684;9.032;2023-07-09T08:13:15;1999.90;;;999.90;;
37321;SDS011;23697;48.684;9.032;2023-07-09T08:15:42;1999.90;;;999.90;;
37321;SDS011;23697;48.684;9.032;2023-07-09T08:18:11;1999.90;;;999.90;;
37321;SDS011;23697;48.684;9.032;2023-07-09T08:20:37;1513.00;;;524.97;;
37321;SDS011;23697;48.684;9.032;2023-07-09T08:23:08;1999.90;;;187.77;;
37321;SDS011;23697;48.684;9.032;2023-07-09T08:25:41;1893.65;;;549.03;;
37321;SDS011;23697;48.684;9.032;2023-07-09T08:28:19;1999.90;;;374.38;;
37321;SDS011;23697;48.684;9.032;2023-07-09T08:30:46;1999.90;;;999.90;;
37321;SDS011;23697;48.684;9.032;2023-07-09T08:33:13;1999.90;;;998.08;;
37321;SDS011;23697;48.684;9.032;2023-07-09T08:35:41;1999.90;;;999.90;;
37321;SDS011;23697;48.684;9.032;2023-07-09T08:38:11;1999.90;;;999.90;;
37321;SDS011;23697;48.684;9.032;2023-07-09T08:40:41;1999.90;;;999.90;;
37321;SDS011;23697;48.684;9.032;2023-07-09T08:43:16;1999.90;;;999.90;;
37321;SDS011;23697;48.684;9.032;2023-07-09T08:45:54;1999.90;;;999.90;;
37321;SDS011;23697;48.684;9.032;2023-07-09T08:48:27;1908.35;;;908.75;;
37321;SDS011;23697;48.684;9.032;2023-07-09T08:50:59;1999.90;;;999.90;;
37321;SDS011;23697;48.684;9.032;2023-07-09T08:53:31;1631.05;;;847.30;;
37321;SDS011;23697;48.684;9.032;2023-07-09T08:56:02;1999.90;;;999.90;;
37321;SDS011;23697;48.684;9.032;2023-07-09T08:58:36;1108.57;;;635.58;;
37321;SDS011;23697;48.684;9.032;2023-07-09T09:01:05;571.13;;;317.25;;
37321;SDS011;23697;48.684;9.032;2023-07-09T09:03:40;334.55;;;200.57;;
37321;SDS011;23697;48.684;9.032;2023-07-09T09:06:11;398.67;;;197.52;;
37321;SDS011;23697;48.684;9.032;2023-07-09T09:08:40;274.30;;;160.00;;
37321;SDS011;23697;48.684;9.032;2023-07-09T09:11:21;261.52;;;96.32;;
37321;SDS011;23697;48.684;9.032;2023-07-09T09:14:23;37.53;;;34.10;;
37321;SDS011;23697;48.684;9.032;2023-07-09T09:16:54;25.00;;;23.15;;
37321;SDS011;23697;48.684;9.032;2023-07-09T09:19:23;14.35;;;13.40;;
37321;SDS011;23697;48.684;9.032;2023-07-09T09:22:02;8.55;;;7.93;;
37321;SDS011;23697;48.684;9.032;2023-07-09T09:24:36;3.92;;;3.70;;
37321;SDS011;23697;48.684;9.032;2023-07-09T09:27:07;5.00;;;4.60;;
37321;SDS011;23697;48.684;9.032;2023-07-09T09:32:58;3.38;;;3.00;;
37321;SDS011;23697;48.684;9.032;2023-07-09T09:35:36;2.55;;;2.35;;
37321;SDS011;23697;48.684;9.032;2023-07-09T09:41:21;2.45;;;2.25;;
37321;SDS011;23697;48.684;9.032;2023-07-09T09:43:52;2.05;;;1.92;;
37321;SDS011;23697;48.684;9.032;2023-07-09T09:49:56;2.05;;;1.95;;
37321;SDS011;23697;48.684;9.032;2023-07-09T09:52:26;2.50;;;1.83;;
37321;SDS011;23697;48.684;9.032;2023-07-09T10:08:05;2.25;;;2.13;;
37321;SDS011;23697;48.684;9.032;2023-07-09T10:10:56;4.18;;;2.92;;
37321;SDS011;23697;48.684;9.032;2023-07-09T10:17:23;3.97;;;3.67;;
37321;SDS011;23697;48.684;9.032;2023-07-09T10:27:21;3.20;;;2.90;;
37321;SDS011;23697;48.684;9.032;2023-07-09T10:30:08;2.85;;;2.60;;
37321;SDS011;23697;48.684;9.032;2023-07-09T10:32:46;3.28;;;2.95;;
37321;SDS011;23697;48.684;9.032;2023-07-09T10:35:24;2.85;;;2.65;;
37321;SDS011;23697;48.684;9.032;2023-07-09T10:38:03;2.88;;;2.65;;
37321;SDS011;23697;48.684;9.032;2023-07-09T10:40:50;3.00;;;2.80;;
37321;SDS011;23697;48.684;9.032;2023-07-09T10:43:23;3.92;;;3.63;;
37321;SDS011;23697;48.684;9.032;2023-07-09T10:45:57;4.38;;;4.07;;
37321;SDS011;23697;48.684;9.032;2023-07-09T10:48:33;5.25;;;4.85;;
37321;SDS011;23697;48.684;9.032;2023-07-09T10:51:02;3.92;;;3.63;;
37321;SDS011;23697;48.684;9.032;2023-07-09T10:53:36;4.85;;;4.03;;
37321;SDS011;23697;48.684;9.032;2023-07-09T10:56:12;4.00;;;3.70;;
37321;SDS011;23697;48.684;9.032;2023-07-09T10:59:56;3.75;;;3.40;;
37321;SDS011;23697;48.684;9.032;2023-07-09T11:02:27;3.30;;;3.00;;
37321;SDS011;23697;48.684;9.032;2023-07-09T11:04:57;3.88;;;3.25;;
37321;SDS011;23697;48.684;9.032;2023-07-09T11:07:27;3.47;;;3.25;;
37321;SDS011;23697;48.684;9.032;2023-07-09T11:13:23;3.50;;;3.20;;
37321;SDS011;23697;48.684;9.032;2023-07-09T11:15:54;3.70;;;3.40;;
37321;SDS011;23697;48.684;9.032;2023-07-09T11:21:57;4.20;;;3.80;;
37321;SDS011;23697;48.684;9.032;2023-07-09T11:24:32;3.75;;;3.45;;
37321;SDS011;23697;48.684;9.032;2023-07-09T11:27:14;4.15;;;3.85;;
37321;SDS011;23697;48.684;9.032;2023-07-09T11:29:48;4.35;;;4.05;;
37321;SDS011;23697;48.684;9.032;2023-07-09T11:32:23;4.88;;;4.47;;
37321;SDS011;23697;48.684;9.032;2023-07-09T11:34:50;4.78;;;4.38;;
37321;SDS011;23697;48.684;9.032;2023-07-09T11:37:22;4.88;;;4.38;;
37321;SDS011;23697;48.684;9.032;2023-07-09T11:39:51;3.97;;;3.67;;
37321;SDS011;23697;48.684;9.032;2023-07-09T11:42:25;4.63;;;4.22;;
37321;SDS011;23697;48.684;9.032;2023-07-09T11:44:58;4.90;;;4.50;;
37321;SDS011;23697;48.684;9.032;2023-07-09T11:47:33;5.85;;;5.43;;
37321;SDS011;23697;48.684;9.032;2023-07-09T11:50:03;5.63;;;5.22;;
37321;SDS011;23697;48.684;9.032;2023-07-09T11:52:39;4.25;;;3.95;;
37321;SDS011;23697;48.684;9.032;2023-07-09T11:55:19;5.53;;;5.13;;
37321;SDS011;23697;48.684;9.032;2023-07-09T11:57:55;5.57;;;4.85;;
37321;SDS011;23697;48.684;9.032;2023-07-09T12:00:29;4.75;;;4.35;;
37321;SDS011;23697;48.684;9.032;2023-07-09T12:03:04;4.38;;;4.07;;
37321;SDS011;23697;48.684;9.032;2023-07-09T12:09:02;4.47;;;4.05;;
37321;SDS011;23697;48.684;9.032;2023-07-09T12:14:01;4.18;;;3.88;;
37321;SDS011;23697;48.684;9.032;2023-07-09T12:16:31;5.13;;;4.68;;
37321;SDS011;23697;48.684;9.032;2023-07-09T12:19:01;6.30;;;5.80;;
37321;SDS011;23697;48.684;9.032;2023-07-09T12:21:29;6.40;;;5.90;;
37321;SDS011;23697;48.684;9.032;2023-07-09T12:23:58;5.85;;;5.45;;
37321;SDS011;23697;48.684;9.032;2023-07-09T12:26:31;6.70;;;6.20;;
37321;SDS011;23697;48.684;9.032;2023-07-09T12:29:04;5.30;;;4.90;;
37321;SDS011;23697;48.684;9.032;2023-07-09T12:31:46;6.20;;;5.80;;
37321;SDS011;23697;48.684;9.032;2023-07-09T12:34:23;7.47;;;6.97;;
37321;SDS011;23697;48.684;9.032;2023-07-09T12:37:05;5.35;;;4.95;;
37321;SDS011;23697;48.684;9.032;2023-07-09T12:39:37;4.93;;;4.63;;
37321;SDS011;23697;48.684;9.032;2023-07-09T12:42:04;7.65;;;7.15;;
37321;SDS011;23697;48.684;9.032;2023-07-09T12:47:57;7.45;;;6.93;;
37321;SDS011;23697;48.684;9.032;2023-07-09T12:50:57;9.32;;;8.73;;
37321;SDS011;23697;48.684;9.032;2023-07-09T12:54:13;7.60;;;7.03;;
37321;SDS011;23697;48.684;9.032;2023-07-09T13:00:39;7.93;;;7.32;;
37321;SDS011;23697;48.684;9.032;2023-07-09T13:10:15;8.13;;;7.57;;
37321;SDS011;23697;48.684;9.032;2023-07-09T13:12:45;7.68;;;7.18;;
37321;SDS011;23697;48.684;9.032;2023-07-09T13:19:17;9.37;;;8.83;;
37321;SDS011;23697;48.684;9.032;2023-07-09T13:50:15;10.32;;;9.73;;
37321;SDS011;23697;48.684;9.032;2023-07-09T13:57:02;10.55;;;9.70;;
37321;SDS011;23697;48.684;9.032;2023-07-09T14:00:34;12.40;;;11.60;;
37321;SDS011;23697;48.684;9.032;2023-07-09T14:02:54;10.32;;;9.73;;
37321;SDS011;23697;48.684;9.032;2023-07-09T14:05:41;9.07;;;8.43;;
37321;SDS011;23697;48.684;9.032;2023-07-09T14:08:09;10.18;;;9.57;;
37321;SDS011;23697;48.684;9.032;2023-07-09T14:11:16;9.93;;;9.32;;
37321;SDS011;23697;48.684;9.032;2023-07-09T14:13:46;9.18;;;8.57;;
37321;SDS011;23697;48.684;9.032;2023-07-09T14:16:13;7.65;;;7.13;;
37321;SDS011;23697;48.684;9.032;2023-07-09T14:18:49;7.43;;;6.93;;
37321;SDS011;23697;48.684;9.032;2023-07-09T14:21:18;8.38;;;7.88;;
37321;SDS011;23697;48.684;9.032;2023-07-09T14:23:49;8.25;;;7.75;;
37321;SDS011;23697;48.684;9.032;2023-07-09T14:26:19;11.23;;;10.48;;
37321;SDS011;23697;48.684;9.032;2023-07-09T14:28:57;10.27;;;9.63;;
37321;SDS011;23697;48.684;9.032;2023-07-09T14:31:45;8.90;;;8.30;;
37321;SDS011;23697;48.684;9.032;2023-07-09T14:34:22;8.65;;;7.97;;
37321;SDS011;23697;48.684;9.032;2023-07-09T14:37:42;9.38;;;8.82;;
37321;SDS011;23697;48.684;9.032;2023-07-09T14:40:47;10.25;;;9.52;;
37321;SDS011;23697;48.684;9.032;2023-07-09T15:17:43;9.40;;;8.80;;
37321;SDS011;23697;48.684;9.032;2023-07-09T15:23:59;10.55;;;9.95;;
37321;SDS011;23697;48.684;9.032;2023-07-09T15:39:59;9.27;;;8.70;;
37321;SDS011;23697;48.684;9.032;2023-07-09T19:35:38;119.35;;;108.38;;
37321;SDS011;23697;48.684;9.032;2023-07-09T19:38:04;220.68;;;200.27;;
37321;SDS011;23697;48.684;9.032;2023-07-09T19:40:32;996.95;;;694.35;;
37321;SDS011;23697;48.684;9.032;2023-07-09T19:42:58;1330.65;;;811.15;;
37321;SDS011;23697;48.684;9.032;2023-07-09T19:45:26;1687.80;;;969.28;;
37321;SDS011;23697;48.684;9.032;2023-07-09T19:47:56;1999.90;;;999.90;;
37321;SDS011;23697;48.684;9.032;2023-07-09T19:50:25;1999.90;;;999.90;;
37321;SDS011;23697;48.684;9.032;2023-07-09T19:52:55;1999.90;;;999.90;;
37321;SDS011;23697;48.684;9.032;2023-07-09T19:55:24;1999.90;;;999.90;;
37321;SDS011;23697;48.684;9.032;2023-07-09T19:57:53;1999.90;;;999.90;;
37321;SDS011;23697;48.684;9.032;2023-07-09T20:00:21;1999.90;;;765.13;;
37321;SDS011;23697;48.684;9.032;2023-07-09T20:02:48;1999.90;;;362.83;;
37321;SDS011;23697;48.684;9.032;2023-07-09T20:05:17;1999.90;;;594.25;;
37321;SDS011;23697;48.684;9.032;2023-07-09T20:07:47;1999.90;;;798.50;;
37321;SDS011;23697;48.684;9.032;2023-07-09T20:10:17;1999.90;;;999.90;;
37321;SDS011;23697;48.684;9.032;2023-07-09T20:12:44;1999.90;;;583.85;;
37321;SDS011;23697;48.684;9.032;2023-07-09T20:15:16;1999.90;;;999.90;;
37321;SDS011;23697;48.684;9.032;2023-07-09T20:17:45;1601.47;;;754.55;;
37321;SDS011;23697;48.684;9.032;2023-07-09T20:20:12;1999.90;;;999.90;;
37321;SDS011;23697;48.684;9.032;2023-07-09T20:22:40;1999.90;;;999.90;;
37321;SDS011;23697;48.684;9.032;2023-07-09T20:25:18;1999.90;;;999.90;;
37321;SDS011;23697;48.684;9.032;2023-07-09T20:27:48;1999.90;;;999.90;;
37321;SDS011;23697;48.684;9.032;2023-07-09T20:30:17;1999.90;;;999.90;;
37321;SDS011;23697;48.684;9.032;2023-07-09T20:32:45;1999.90;;;999.90;;
37321;SDS011;23697;48.684;9.032;2023-07-09T20:35:16;1999.90;;;999.90;;
37321;SDS011;23697;48.684;9.032;2023-07-09T20:37:45;1999.90;;;999.90;;
37321;SDS011;23697;48.684;9.032;2023-07-09T20:40:14;1999.90;;;999.90;;
37321;SDS011;23697;48.684;9.032;2023-07-09T20:42:43;1999.90;;;999.90;;
37321;SDS011;23697;48.684;9.032;2023-07-09T20:45:12;1999.90;;;999.90;;
37321;SDS011;23697;48.684;9.032;2023-07-09T20:47:45;1999.90;;;999.90;;
37321;SDS011;23697;48.684;9.032;2023-07-09T20:50:13;1999.90;;;999.90;;
37321;SDS011;23697;48.684;9.032;2023-07-09T20:52:41;1999.90;;;999.90;;
37321;SDS011;23697;48.684;9.032;2023-07-09T20:55:09;1999.90;;;999.90;;
37321;SDS011;23697;48.684;9.032;2023-07-09T20:57:38;1999.90;;;999.90;;
37321;SDS011;23697;48.684;9.032;2023-07-09T21:00:16;1999.90;;;999.90;;
37321;SDS011;23697;48.684;9.032;2023-07-09T21:02:45;1999.90;;;999.90;;
37321;SDS011;23697;48.684;9.032;2023-07-09T21:05:13;1999.90;;;999.90;;
37321;SDS011;23697;48.684;9.032;2023-07-09T21:07:42;1999.90;;;999.90;;
37321;SDS011;23697;48.684;9.032;2023-07-09T21:10:15;1999.90;;;999.90;;
37321;SDS011;23697;48.684;9.032;2023-07-09T21:12:43;1999.90;;;999.90;;
37321;SDS011;23697;48.684;9.032;2023-07-09T21:15:10;1999.90;;;999.90;;
37321;SDS011;23697;48.684;9.032;2023-07-09T21:17:38;1999.90;;;999.90;;
37321;SDS011;23697;48.684;9.032;2023-07-09T21:20:11;1999.90;;;999.90;;
37321;SDS011;23697;48.684;9.032;2023-07-09T22:04:30;1999.90;;;999.90;;
37321;SDS011;23697;48.684;9.032;2023-07-09T22:07:39;1999.90;;;999.90;;
37321;SDS011;23697;48.684;9.032;2023-07-09T22:10:52;1999.90;;;999.90;;
37321;SDS011;23697;48.684;9.032;2023-07-09T22:47:43;1999.90;;;999.90;;
37321;SDS011;23697;48.684;9.032;2023-07-09T22:51:29;1999.90;;;999.90;;
37321;SDS011;23697;48.684;9.032;2023-07-09T22:58:03;1999.90;;;999.90;;
37321;SDS011;23697;48.684;9.032;2023-07-09T23:01:00;1999.90;;;999.90;;
37321;SDS011;23697;48.684;9.032;2023-07-09T23:17:13;1999.90;;;999.90;;
37321;SDS011;23697;48.684;9.032;2023-07-09T23:23:50;1999.90;;;999.90;;
37321;SDS011;23697;48.684;9.032;2023-07-09T23:41:09;1999.90;;;999.90;;
37321;SDS011;23697;48.684;9.032;2023-07-09T23:44:44;1999.90;;;999.90;;
37321;SDS011;23697;48.684;9.032;2023-07-09T23:48:15;1999.90;;;999.90;;
37321;SDS011;23697;48.684;9.032;2023-07-09T23:55:08;1999.90;;;999.90;;
